createdAt,value
2018-02-22T00:01:59.606Z,13.85
2018-02-22T00:04:27.853Z,10.77
2018-02-22T00:06:56.235Z,12.15
2018-02-22T00:09:24.513Z,11.68
2018-02-22T00:11:52.808Z,13.43
2018-02-22T00:14:21.164Z,12.10
2018-02-22T00:16:49.412Z,12.50
2018-02-22T00:19:17.685Z,11.60
2018-02-22T00:21:46.040Z,11.38
2018-02-22T00:24:14.330Z,11.93
2018-02-22T00:26:42.668Z,11.63
2018-02-22T00:29:11.030Z,11.65
2018-02-22T00:31:39.274Z,11.98
2018-02-22T00:34:07.564Z,12.00
2018-02-22T00:36:35.856Z,11.93
2018-02-22T00:39:04.112Z,11.77
2018-02-22T00:41:32.398Z,11.90
2018-02-22T00:44:00.640Z,11.88
2018-02-22T00:46:29.688Z,12.30
2018-02-22T00:48:57.972Z,12.37
2018-02-22T00:51:26.354Z,12.00
2018-02-22T00:53:54.604Z,12.05
2018-02-22T00:56:22.896Z,13.02
2018-02-22T00:58:51.169Z,13.50
2018-02-22T01:01:19.504Z,12.37
2018-02-22T01:03:48.581Z,12.43
2018-02-22T01:06:16.866Z,12.80
2018-02-22T01:08:45.942Z,12.13
2018-02-22T01:11:14.179Z,11.57
2018-02-22T01:13:42.483Z,11.50
2018-02-22T01:16:10.740Z,11.75
2018-02-22T01:18:39.015Z,11.52
2018-02-22T01:21:07.357Z,12.13
2018-02-22T01:23:35.672Z,11.98
2018-02-22T01:26:04.707Z,11.70
2018-02-22T01:28:32.944Z,11.80
2018-02-22T01:31:01.214Z,12.23
2018-02-22T01:33:29.464Z,12.37
2018-02-22T01:35:57.788Z,12.37
2018-02-22T01:38:26.063Z,11.95
2018-02-22T01:40:54.305Z,13.17
2018-02-22T01:43:22.557Z,13.45
2018-02-22T01:45:51.600Z,12.95
2018-02-22T01:48:19.859Z,13.55
2018-02-22T01:50:48.142Z,13.38
2018-02-22T01:53:16.406Z,13.30
2018-02-22T01:55:44.702Z,14.55
2018-02-22T01:58:12.963Z,13.32
2018-02-22T02:00:41.271Z,13.00
2018-02-22T02:03:09.545Z,13.52
2018-02-22T02:05:37.802Z,12.97
2018-02-22T02:08:06.089Z,13.75
2018-02-22T02:10:34.382Z,12.95
2018-02-22T02:13:02.642Z,13.10
2018-02-22T02:15:30.895Z,14.18
2018-02-22T02:17:59.164Z,13.52
2018-02-22T02:20:27.484Z,14.13
2018-02-22T02:22:55.750Z,13.57
2018-02-22T02:25:24.003Z,13.52
2018-02-22T02:27:58.077Z,13.57
2018-02-22T02:30:26.359Z,13.18
2018-02-22T02:32:54.698Z,13.13
2018-02-22T02:35:22.956Z,14.23
2018-02-22T02:37:51.319Z,13.40
2018-02-22T02:40:19.636Z,13.83
2018-02-22T02:42:47.926Z,13.18
2018-02-22T02:45:16.188Z,13.25
2018-02-22T02:47:44.431Z,13.43
2018-02-22T02:50:12.838Z,13.70
2018-02-22T02:52:41.106Z,13.90
2018-02-22T02:55:09.356Z,14.00
2018-02-22T02:57:37.676Z,13.93
2018-02-22T03:00:05.926Z,14.07
2018-02-22T03:02:34.205Z,14.00
2018-02-22T03:05:02.501Z,13.60
2018-02-22T03:07:30.780Z,13.85
2018-02-22T03:09:59.020Z,14.10
2018-02-22T03:12:27.295Z,13.85
2018-02-22T03:14:55.615Z,13.88
2018-02-22T03:17:23.874Z,14.40
2018-02-22T03:19:52.147Z,14.45
2018-02-22T03:22:20.407Z,14.55
2018-02-22T03:24:48.678Z,13.77
2018-02-22T03:27:16.927Z,15.35
2018-02-22T03:29:45.267Z,14.87
2018-02-22T03:32:13.538Z,14.27
2018-02-22T03:34:41.828Z,14.95
2018-02-22T03:37:10.192Z,14.43
2018-02-22T03:39:38.442Z,14.57
2018-02-22T03:42:07.556Z,14.48
2018-02-22T03:44:35.855Z,14.38
2018-02-22T03:47:04.110Z,15.50
2018-02-22T03:49:32.380Z,14.68
2018-02-22T03:52:00.664Z,14.87
2018-02-22T03:54:28.966Z,14.82
2018-02-22T03:56:58.221Z,16.52
2018-02-22T03:59:26.478Z,15.82
2018-02-22T04:01:55.625Z,14.93
2018-02-22T04:04:23.908Z,15.75
2018-02-22T04:06:52.173Z,16.33
2018-02-22T04:09:20.448Z,15.48
2018-02-22T04:11:48.691Z,15.88
2018-02-22T04:14:17.833Z,16.17
2018-02-22T04:16:46.125Z,15.95
2018-02-22T04:19:14.405Z,16.42
2018-02-22T04:21:42.660Z,17.23
2018-02-22T04:24:11.037Z,16.42
2018-02-22T04:26:39.326Z,16.08
2018-02-22T04:29:07.604Z,16.15
2018-02-22T04:31:35.862Z,16.27
2018-02-22T04:34:04.156Z,16.77
2018-02-22T04:36:32.419Z,16.33
2018-02-22T04:39:00.702Z,16.23
2018-02-22T04:41:29.106Z,15.50
2018-02-22T04:43:57.357Z,16.02
2018-02-22T04:46:25.663Z,15.95
2018-02-22T04:48:53.912Z,16.37
2018-02-22T04:51:22.194Z,16.35
2018-02-22T04:53:50.458Z,17.27
2018-02-22T04:56:18.711Z,17.85
2018-02-22T04:58:46.997Z,16.10
2018-02-22T05:01:15.256Z,16.43
2018-02-22T05:03:43.530Z,16.80
2018-02-22T05:06:11.804Z,16.60
2018-02-22T05:08:40.835Z,17.97
2018-02-22T05:11:09.095Z,17.85
2018-02-22T05:13:37.349Z,17.12
2018-02-22T05:16:05.569Z,17.40
2018-02-22T05:18:33.836Z,17.48
2018-02-22T05:21:02.065Z,16.90
2018-02-22T05:23:31.073Z,17.60
2018-02-22T05:25:59.333Z,17.45
2018-02-22T05:28:28.390Z,17.80
2018-02-22T05:30:56.735Z,17.30
2018-02-22T05:33:25.027Z,18.40
2018-02-22T05:35:53.255Z,18.67
2018-02-22T05:38:22.279Z,19.30
2018-02-22T05:40:50.518Z,17.98
2018-02-22T05:43:20.374Z,18.70
2018-02-22T05:45:48.606Z,19.10
2018-02-22T05:48:17.630Z,19.67
2018-02-22T05:50:46.660Z,19.90
2018-02-22T05:53:14.893Z,20.08
2018-02-22T05:55:43.186Z,19.80
2018-02-22T05:58:11.509Z,19.80
2018-02-22T06:00:39.705Z,19.67
2018-02-22T06:03:08.728Z,20.23
2018-02-22T06:05:36.967Z,19.83
2018-02-22T06:08:05.244Z,18.00
2018-02-22T06:10:33.453Z,19.05
2018-02-22T06:13:01.738Z,19.85
2018-02-22T06:15:30.007Z,19.27
2018-02-22T06:17:58.276Z,19.20
2018-02-22T06:20:26.523Z,19.23
2018-02-22T06:22:54.906Z,21.17
2018-02-22T06:25:23.120Z,19.58
2018-02-22T06:27:51.372Z,19.05
2018-02-22T06:30:20.497Z,20.42
2018-02-22T06:32:48.718Z,21.27
2018-02-22T06:35:17.057Z,21.40
2018-02-22T06:37:46.209Z,20.43
2018-02-22T06:40:15.224Z,21.35
2018-02-22T06:42:43.502Z,21.93
2018-02-22T06:45:12.515Z,21.33
2018-02-22T06:47:40.754Z,21.52
2018-02-22T06:50:09.877Z,21.83
2018-02-22T06:52:38.154Z,22.40
2018-02-22T06:55:06.380Z,22.57
2018-02-22T06:57:34.641Z,21.40
2018-02-22T07:00:02.880Z,22.25
2018-02-22T07:02:32.693Z,21.30
2018-02-22T07:05:00.975Z,23.33
2018-02-22T07:07:29.205Z,22.97
2018-02-22T07:09:57.525Z,23.35
2018-02-22T07:12:25.776Z,23.45
2018-02-22T07:14:54.774Z,22.63
2018-02-22T07:17:23.811Z,22.37
2018-02-22T07:19:52.032Z,23.08
2018-02-22T07:22:21.028Z,22.45
2018-02-22T07:24:50.085Z,22.27
2018-02-22T07:27:18.375Z,21.90
2018-02-22T07:29:46.606Z,22.40
2018-02-22T07:32:14.890Z,22.52
2018-02-22T07:34:43.125Z,22.95
2018-02-22T07:37:11.380Z,22.57
2018-02-22T07:39:39.639Z,22.30
2018-02-22T07:42:07.997Z,22.02
2018-02-22T07:44:36.227Z,22.35
2018-02-22T07:47:04.549Z,21.20
2018-02-22T07:49:32.829Z,21.90
2018-02-22T07:52:01.087Z,22.10
2018-02-22T07:54:29.380Z,21.80
2018-02-22T07:56:57.630Z,20.20
2018-02-22T07:59:26.633Z,20.88
2018-02-22T08:01:54.919Z,21.35
2018-02-22T08:04:23.215Z,20.80
2018-02-22T08:06:51.531Z,19.58
2018-02-22T08:09:19.743Z,20.50
2018-02-22T08:11:47.986Z,20.55
2018-02-22T08:14:16.298Z,20.00
2018-02-22T08:16:44.572Z,20.88
2018-02-22T08:19:12.851Z,20.48
2018-02-22T08:21:41.078Z,18.85
2018-02-22T08:24:09.409Z,18.77
2018-02-22T08:26:37.719Z,18.80
2018-02-22T08:29:05.971Z,18.77
2018-02-22T08:31:34.238Z,19.27
2018-02-22T08:34:02.497Z,19.37
2018-02-22T08:36:31.517Z,18.85
2018-02-22T08:38:59.808Z,19.55
2018-02-22T08:41:28.065Z,19.33
2018-02-22T08:43:56.407Z,19.60
2018-02-22T08:46:24.737Z,19.62
2018-02-22T08:48:53.000Z,19.48
2018-02-22T08:51:21.250Z,18.98
2018-02-22T08:53:50.286Z,17.98
2018-02-22T08:56:18.550Z,20.35
2018-02-22T08:58:46.814Z,19.77
2018-02-22T09:01:15.186Z,18.90
2018-02-22T09:03:43.480Z,17.95
2018-02-22T09:06:11.819Z,18.62
2018-02-22T09:08:40.835Z,17.20
2018-02-22T09:11:09.084Z,18.60
2018-02-22T09:13:37.333Z,17.60
2018-02-22T09:16:05.564Z,16.27
2018-02-22T09:18:33.877Z,15.98
2018-02-22T09:21:02.144Z,16.20
2018-02-22T09:23:32.272Z,15.82
2018-02-22T09:26:00.586Z,16.40
2018-02-22T09:28:28.908Z,14.70
2018-02-22T09:30:57.262Z,13.07
2018-02-22T09:33:26.276Z,13.83
2018-02-22T09:35:54.567Z,12.77
2018-02-22T09:38:22.819Z,11.77
2018-02-22T09:40:51.050Z,12.40
2018-02-22T09:43:19.442Z,12.02
2018-02-22T09:45:47.640Z,9.87
2018-02-22T09:48:16.842Z,10.52
2018-02-22T09:50:45.085Z,10.47
2018-02-22T09:53:13.415Z,10.80
2018-02-22T09:55:41.721Z,13.27
2018-02-22T09:58:09.954Z,13.33
2018-02-22T10:00:38.295Z,45.22
2018-02-22T10:03:06.632Z,36.08
2018-02-22T10:05:34.890Z,14.00
2018-02-22T10:08:03.177Z,13.05
2018-02-22T10:10:31.441Z,12.45
2018-02-22T10:12:59.707Z,11.95
2018-02-22T10:15:28.838Z,11.05
2018-02-22T10:17:57.085Z,10.90
2018-02-22T10:20:25.334Z,10.77
2018-02-22T10:22:53.582Z,9.77
2018-02-22T10:25:21.824Z,10.50
2018-02-22T10:27:50.071Z,9.50
2018-02-22T10:30:18.282Z,9.88
2018-02-22T10:32:46.668Z,9.52
2018-02-22T10:35:14.926Z,9.30
2018-02-22T10:37:43.169Z,9.65
2018-02-22T10:40:11.472Z,9.90
2018-02-22T10:42:39.709Z,9.90
2018-02-22T10:45:07.958Z,8.70
2018-02-22T10:47:36.219Z,8.95
2018-02-22T10:50:04.467Z,8.38
2018-02-22T10:52:33.473Z,9.77
2018-02-22T10:55:02.463Z,9.50
2018-02-22T10:57:31.494Z,8.30
2018-02-22T10:59:59.745Z,8.30
2018-02-22T11:02:45.874Z,7.65
2018-02-22T11:05:14.219Z,7.57
2018-02-22T11:07:42.491Z,8.02
2018-02-22T11:10:10.788Z,7.60
2018-02-22T11:12:39.058Z,48.38
2018-02-22T11:15:07.319Z,37.13
2018-02-22T11:17:35.590Z,10.03
2018-02-22T11:20:03.876Z,8.65
2018-02-22T11:22:32.848Z,8.82
2018-02-22T11:25:01.893Z,10.80
2018-02-22T11:27:30.131Z,9.25
2018-02-22T11:29:58.366Z,10.50
2018-02-22T11:32:26.606Z,9.30
2018-02-22T11:34:54.833Z,9.35
2018-02-22T11:37:23.204Z,9.10
2018-02-22T11:39:51.439Z,8.30
2018-02-22T11:42:19.718Z,8.82
2018-02-22T11:44:47.989Z,9.00
2018-02-22T11:47:16.281Z,12.52
2018-02-22T11:49:44.529Z,9.53
2018-02-22T11:52:12.767Z,11.68
2018-02-22T11:54:41.068Z,10.40
2018-02-22T11:57:10.070Z,10.15
2018-02-22T11:59:38.321Z,10.32
2018-02-22T12:02:06.537Z,10.73
2018-02-22T12:04:34.814Z,12.27
2018-02-22T12:07:03.061Z,10.73
2018-02-22T12:09:32.058Z,11.47
2018-02-22T12:12:01.198Z,11.30
2018-02-22T12:14:29.460Z,10.45
2018-02-22T12:16:57.787Z,10.95
2018-02-22T12:19:25.989Z,10.93
2018-02-22T12:21:55.188Z,11.23
2018-02-22T12:24:23.400Z,8.43
2018-02-22T12:26:51.650Z,9.23
2018-02-22T12:29:19.878Z,8.83
2018-02-22T12:31:48.162Z,9.25
2018-02-22T12:34:16.395Z,9.15
2018-02-22T12:36:44.669Z,10.85
2018-02-22T12:39:12.966Z,9.98
2018-02-22T12:41:41.175Z,9.95
2018-02-22T12:44:10.188Z,34.67
2018-02-22T12:46:39.362Z,60.80
2018-02-22T12:49:07.566Z,9.57
2018-02-22T12:51:35.824Z,8.20
2018-02-22T12:54:04.858Z,8.17
2018-02-22T12:56:33.091Z,7.67
2018-02-22T12:59:01.358Z,7.57
2018-02-22T13:01:29.744Z,7.77
2018-02-22T13:03:57.988Z,7.60
2018-02-22T13:06:26.218Z,7.30
2018-02-22T13:08:54.483Z,7.90
2018-02-22T13:11:23.520Z,10.35
2018-02-22T13:13:51.766Z,9.52
2018-02-22T13:16:19.998Z,9.10
2018-02-22T13:18:48.252Z,9.53
2018-02-22T13:21:16.468Z,9.07
2018-02-22T13:23:44.790Z,9.20
2018-02-22T13:26:13.046Z,9.23
2018-02-22T13:28:42.086Z,11.10
2018-02-22T13:31:10.334Z,9.57
2018-02-22T13:33:50.375Z,10.27
2018-02-22T13:36:19.367Z,7.87
2018-02-22T13:38:59.594Z,10.88
2018-02-22T13:41:30.556Z,9.63
2018-02-22T13:44:10.670Z,9.30
2018-02-22T13:46:39.003Z,7.35
2018-02-22T13:52:13.250Z,7.57
2018-02-22T13:54:41.463Z,8.30
2018-02-22T13:57:16.422Z,7.85
2018-02-22T13:59:44.668Z,7.57
2018-02-22T14:02:21.654Z,8.07
2018-02-22T14:04:49.904Z,7.90
2018-02-22T14:07:18.154Z,7.50
2018-02-22T14:09:46.397Z,7.10
2018-02-22T14:12:14.706Z,6.22
2018-02-22T14:14:42.969Z,6.35
2018-02-22T14:17:11.968Z,7.05
2018-02-22T14:19:40.973Z,7.53
2018-02-22T14:22:09.246Z,6.90
2018-02-22T14:24:37.490Z,7.18
2018-02-22T14:27:05.724Z,8.00
2018-02-22T14:29:33.986Z,7.78
2018-02-22T14:32:02.258Z,7.80
2018-02-22T14:34:30.531Z,7.28
2018-02-22T14:36:58.832Z,7.55
2018-02-22T14:39:27.156Z,7.80
2018-02-22T14:41:55.383Z,7.68
2018-02-22T14:44:23.626Z,7.28
2018-02-22T14:46:52.633Z,7.53
2018-02-22T14:49:20.881Z,6.97
2018-02-22T14:51:49.921Z,7.12
2018-02-22T14:54:18.148Z,6.43
2018-02-22T14:56:47.234Z,7.72
2018-02-22T14:59:15.442Z,6.15
2018-02-22T15:01:44.504Z,5.80
2018-02-22T15:04:12.687Z,6.55
2018-02-22T15:06:41.711Z,6.00
2018-02-22T15:09:09.994Z,6.68
2018-02-22T15:11:38.330Z,6.82
2018-02-22T15:14:06.654Z,7.03
2018-02-22T15:16:34.910Z,6.80
2018-02-22T15:19:03.894Z,7.43
2018-02-22T15:21:32.906Z,7.03
2018-02-22T15:24:01.127Z,6.68
2018-02-22T15:26:29.421Z,6.40
2018-02-22T15:28:57.651Z,7.60
2018-02-22T15:31:25.872Z,6.25
2018-02-22T15:33:54.118Z,7.32
2018-02-22T15:36:22.362Z,6.80
2018-02-22T15:38:50.646Z,6.85
2018-02-22T15:41:18.875Z,7.18
2018-02-22T15:43:47.136Z,7.75
2018-02-22T15:46:15.357Z,7.37
2018-02-22T15:48:44.390Z,8.63
2018-02-22T15:51:12.625Z,8.02
2018-02-22T15:53:41.742Z,10.50
2018-02-22T15:56:10.014Z,10.68
2018-02-22T15:58:38.478Z,9.57
2018-02-22T16:01:07.481Z,11.88
2018-02-22T16:03:35.766Z,9.95
2018-02-22T16:06:03.990Z,9.52
2018-02-22T16:08:32.235Z,9.27
2018-02-22T16:11:00.519Z,8.70
2018-02-22T16:13:28.746Z,10.05
2018-02-22T16:15:57.875Z,9.10
2018-02-22T16:18:26.856Z,9.45
2018-02-22T16:20:55.153Z,9.32
2018-02-22T16:23:23.402Z,9.43
2018-02-22T16:25:51.613Z,9.70
2018-02-22T16:28:19.859Z,9.10
2018-02-22T16:30:48.081Z,9.67
2018-02-22T16:33:16.323Z,8.60
2018-02-22T16:35:44.558Z,8.20
2018-02-22T16:38:13.589Z,9.18
2018-02-22T16:40:41.809Z,9.77
2018-02-22T16:43:10.045Z,9.85
2018-02-22T16:45:38.311Z,9.37
2018-02-22T16:48:06.562Z,10.07
2018-02-22T16:50:35.593Z,10.48
2018-02-22T16:53:03.838Z,9.20
2018-02-22T16:55:32.860Z,8.83
2018-02-22T16:58:01.136Z,9.10
2018-02-22T17:00:29.483Z,8.93
2018-02-22T17:02:58.618Z,8.95
2018-02-22T17:05:26.853Z,8.40
2018-02-22T17:07:55.932Z,9.27
2018-02-22T17:10:24.158Z,8.33
2018-02-22T17:12:52.395Z,7.65
2018-02-22T17:15:20.627Z,7.93
2018-02-22T17:17:48.853Z,7.22
2018-02-22T17:20:17.869Z,8.00
2018-02-22T17:22:46.150Z,9.10
2018-02-22T17:25:14.434Z,10.13
2018-02-22T17:27:48.451Z,10.38
2018-02-22T17:30:22.411Z,8.20
2018-02-22T17:32:51.537Z,10.98
2018-02-22T17:35:19.726Z,8.48
2018-02-22T17:37:53.544Z,7.90
2018-02-22T17:40:27.754Z,8.48
2018-02-22T17:42:55.982Z,8.07
2018-02-22T17:45:25.031Z,9.20
2018-02-22T17:47:53.279Z,9.20
2018-02-22T17:50:21.483Z,8.10
2018-02-22T17:52:49.721Z,7.87
2018-02-22T17:55:18.738Z,7.90
2018-02-22T17:57:46.959Z,8.23
2018-02-22T18:00:15.204Z,8.20
2018-02-22T18:02:43.433Z,8.60
2018-02-22T18:05:12.493Z,7.80
2018-02-22T18:07:40.807Z,8.40
2018-02-22T18:10:09.167Z,8.43
2018-02-22T18:12:37.426Z,7.97
2018-02-22T18:15:05.673Z,8.48
2018-02-22T18:17:33.921Z,8.73
2018-02-22T18:20:02.938Z,8.73
2018-02-22T18:22:31.188Z,8.65
2018-02-22T18:25:00.195Z,8.65
2018-02-22T18:27:28.472Z,8.05
2018-02-22T18:29:56.717Z,8.32
2018-02-22T18:32:24.932Z,9.13
2018-02-22T18:34:53.174Z,8.93
2018-02-22T18:37:27.910Z,8.38
2018-02-22T18:39:56.961Z,8.93
2018-02-22T18:42:25.942Z,8.55
2018-02-22T18:44:59.994Z,9.23
2018-02-22T18:47:28.226Z,8.13
2018-02-22T18:49:56.466Z,8.40
2018-02-22T18:52:25.598Z,8.52
2018-02-22T18:54:53.859Z,8.35
2018-02-22T18:57:22.111Z,7.82
2018-02-22T18:59:51.126Z,7.60
2018-02-22T19:02:19.405Z,7.68
2018-02-22T19:04:47.689Z,7.93
2018-02-22T19:07:16.011Z,7.40
2018-02-22T19:09:44.285Z,8.02
2018-02-22T19:12:12.564Z,7.72
2018-02-22T19:14:40.814Z,8.23
2018-02-22T19:17:09.060Z,6.97
2018-02-22T19:19:37.305Z,7.68
2018-02-22T19:22:05.638Z,7.00
2018-02-22T19:24:33.862Z,6.93
2018-02-22T19:27:02.866Z,7.28
2018-02-22T19:29:31.913Z,8.07
2018-02-22T19:32:00.185Z,12.23
2018-02-22T19:34:28.433Z,7.87
2018-02-22T19:36:56.708Z,10.20
2018-02-22T19:39:24.952Z,8.68
2018-02-22T19:41:53.181Z,13.02
2018-02-22T19:44:21.491Z,6.68
2018-02-22T19:46:49.714Z,6.97
2018-02-22T19:49:18.869Z,6.25
2018-02-22T19:51:47.096Z,5.93
2018-02-22T19:54:15.358Z,6.00
2018-02-22T19:56:43.636Z,6.10
2018-02-22T19:59:11.839Z,6.93
2018-02-22T20:01:40.198Z,6.35
2018-02-22T20:04:08.464Z,6.20
2018-02-22T20:06:36.740Z,7.07
2018-02-22T20:09:04.966Z,5.85
2018-02-22T20:11:33.302Z,6.37
2018-02-22T20:14:01.579Z,5.80
2018-02-22T20:16:29.830Z,5.97
2018-02-22T20:18:58.868Z,6.22
2018-02-22T20:21:27.083Z,6.20
2018-02-22T20:23:55.390Z,5.65
2018-02-22T20:26:23.631Z,6.22
2018-02-22T20:28:51.907Z,6.43
2018-02-22T20:31:20.227Z,6.03
2018-02-22T20:33:48.502Z,6.40
2018-02-22T20:36:16.706Z,5.90
2018-02-22T20:38:44.957Z,5.83
2018-02-22T20:41:13.218Z,5.85
2018-02-22T20:43:42.250Z,6.00
2018-02-22T20:46:10.490Z,6.05
2018-02-22T20:48:39.626Z,6.30
2018-02-22T20:51:08.274Z,6.78
2018-02-22T20:53:37.282Z,7.50
2018-02-22T20:56:05.525Z,7.27
2018-02-22T20:58:34.572Z,8.27
2018-02-22T21:01:02.836Z,8.57
2018-02-22T21:03:33.580Z,8.43
2018-02-22T21:06:01.828Z,9.07
2018-02-22T21:08:30.126Z,8.77
2018-02-22T21:10:58.394Z,8.88
2018-02-22T21:13:26.638Z,8.57
2018-02-22T21:15:55.676Z,9.20
2018-02-22T21:18:23.928Z,8.65
2018-02-22T21:20:52.222Z,8.13
2018-02-22T21:23:20.491Z,8.98
2018-02-22T21:25:48.791Z,8.48
2018-02-22T21:28:17.042Z,8.63
2018-02-22T21:30:45.314Z,9.25
2018-02-22T21:33:14.331Z,8.88
2018-02-22T21:35:42.587Z,8.23
2018-02-22T21:38:10.871Z,13.27
2018-02-22T21:40:39.142Z,10.68
2018-02-22T21:43:07.416Z,9.20
2018-02-22T21:45:35.665Z,8.50
2018-02-22T21:48:03.878Z,8.30
2018-02-22T21:50:32.142Z,9.23
2018-02-22T21:53:00.376Z,9.77
2018-02-22T21:55:28.661Z,9.45
2018-02-22T21:57:56.912Z,9.68
2018-02-22T22:00:25.186Z,9.63
2018-02-22T22:02:53.463Z,9.82
2018-02-22T22:05:21.705Z,9.90
2018-02-22T22:07:49.957Z,10.13
2018-02-22T22:10:18.990Z,10.53
2018-02-22T22:12:47.243Z,10.43
2018-02-22T22:15:15.527Z,10.37
2018-02-22T22:17:43.785Z,11.05
2018-02-22T22:20:12.769Z,10.07
2018-02-22T22:22:41.789Z,10.40
2018-02-22T22:25:10.062Z,10.38
2018-02-22T22:27:38.370Z,10.10
2018-02-22T22:30:06.610Z,10.50
2018-02-22T22:32:34.898Z,10.80
2018-02-22T22:35:03.134Z,10.20
2018-02-22T22:37:31.371Z,9.60
2018-02-22T22:39:59.612Z,9.73
2018-02-22T22:42:28.593Z,10.55
2018-02-22T22:44:57.652Z,10.52
2018-02-22T22:47:25.873Z,9.95
2018-02-22T22:49:54.889Z,10.88
2018-02-22T22:52:23.155Z,10.23
2018-02-22T22:54:51.434Z,10.80
2018-02-22T22:57:19.662Z,10.43
2018-02-22T22:59:48.023Z,10.10
2018-02-22T23:02:16.382Z,10.13
2018-02-22T23:04:44.658Z,10.67
2018-02-22T23:07:12.962Z,10.48
2018-02-22T23:09:41.208Z,10.50
2018-02-22T23:12:09.424Z,10.32
2018-02-22T23:14:37.683Z,10.43
2018-02-22T23:17:05.915Z,10.93
2018-02-22T23:19:34.310Z,10.25
2018-02-22T23:22:02.531Z,10.52
2018-02-22T23:24:30.761Z,10.50
2018-02-22T23:26:59.010Z,10.10
2018-02-22T23:29:27.995Z,10.25
2018-02-22T23:31:57.009Z,10.80
2018-02-22T23:34:26.026Z,11.20
2018-02-22T23:36:54.271Z,10.82
2018-02-22T23:39:23.282Z,11.00
2018-02-22T23:41:57.490Z,10.07
2018-02-22T23:44:25.794Z,10.30
2018-02-22T23:46:54.030Z,10.27
2018-02-22T23:49:23.157Z,9.98
2018-02-22T23:51:51.385Z,10.60
2018-02-22T23:54:19.663Z,9.88
2018-02-22T23:56:47.869Z,9.70
2018-02-22T23:59:16.123Z,9.50
